首页
METAR-TAF:

METAR-TAF

机场 :

Twin County Airport

盖拉克斯 / Hillsville, 弗吉尼亚州, 美国

纬度: 36-46N, 经度: 080-49W, 海拔: 834米

当前天气观测

该预报发布于20分钟前的15:55 UTC
风速4节,风向南转西南
温度 26°C
湿度 74%
气压 1021 hPa
能見度: 16.1公里
多云层高于7500英尺

METAR: KHLX 161555Z AUTO 20004KT 10SM BKN075 26/21 A3016 RMK AO2 T02560206

时间: 12:15 (16:15 UTC)


TAF: 丢失

超过4000个机场的气象观测和天气预报(METAR&TAF报告)。

可查询的气象台以黄色和红色小点在地图上表示。

将鼠标移到小点上方,可查看气象台名称。

然后点击查看天气观测和预报。

如需切换地图:点击带黑十字的绿色按钮放大地图;点击带横线的绿色按钮缩小地图;或者点击绿色箭头查看邻近地区的地图。


METAR-TAF: